Time;durP1;ratioP1;P1;durP2;ratioP2;P2;SDS_P1;SDS_P2;PMS_P1;PMS_P2;Temp;Humidity;BMP_temperature;BMP_pressure;BME280_temperature;BME280_humidity;BME280_pressure;Samples;Min_cycle;Max_cycle;Signal;HPM_P1;HPM_P2
2024/02/03 05:07:50;;;;;;;0.38;0.38;;;2.80;99.90;;;;;;4954627;29;20224;-67
2024/02/03 05:10:17;;;;;;;0.40;0.40;;;2.80;99.90;;;;;;4955809;28;20164;-67
2024/02/03 05:12:43;;;;;;;0.40;0.40;;;2.90;99.90;;;;;;4956262;29;20339;-67
2024/02/03 05:15:09;;;;;;;0.47;0.47;;;2.80;99.90;;;;;;4955598;29;20238;-66
2024/02/03 05:17:34;;;;;;;0.40;0.40;;;2.80;99.90;;;;;;4955916;29;20168;-67
2024/02/03 05:20:00;;;;;;;0.40;0.40;;;2.80;99.90;;;;;;4955947;29;20215;-67
2024/02/03 05:22:25;;;;;;;0.30;0.30;;;2.70;99.90;;;;;;4956143;29;20524;-68
2024/02/03 05:24:51;;;;;;;0.40;0.40;;;2.70;99.90;;;;;;4955781;29;20176;-67
2024/02/03 05:27:16;;;;;;;0.40;0.40;;;2.70;99.90;;;;;;4954416;29;20192;-68
2024/02/03 05:29:42;;;;;;;0.40;0.40;;;2.70;99.90;;;;;;4955875;29;20174;-67
2024/02/03 05:32:08;;;;;;;0.30;0.30;;;2.70;99.90;;;;;;4955963;29;20177;-67
2024/02/03 05:34:33;;;;;;;0.40;0.40;;;2.70;99.90;;;;;;4955105;29;20559;-69
2024/02/03 05:36:59;;;;;;;0.40;0.40;;;2.70;99.90;;;;;;4954713;29;20189;-67
2024/02/03 05:39:24;;;;;;;0.40;0.40;;;2.70;99.90;;;;;;4955848;29;20248;-68
2024/02/03 05:41:50;;;;;;;0.40;0.40;;;2.70;99.90;;;;;;4955642;29;20176;-68
2024/02/03 05:44:16;;;;;;;0.40;0.40;;;2.70;99.90;;;;;;4955306;29;20240;-67
2024/02/03 05:46:42;;;;;;;0.40;0.40;;;2.70;99.90;;;;;;4955211;28;20200;-68
2024/02/03 05:49:08;;;;;;;0.40;0.40;;;2.70;99.90;;;;;;4955634;29;20173;-67
2024/02/03 05:51:33;;;;;;;0.30;0.30;;;2.60;99.90;;;;;;4955408;29;20169;-68
2024/02/03 05:53:59;;;;;;;0.80;0.80;;;2.60;99.90;;;;;;4955165;28;20251;-66
2024/02/03 05:56:24;;;;;;;0.37;0.37;;;2.60;99.90;;;;;;4955076;28;20201;-69
2024/02/03 05:58:50;;;;;;;0.40;0.40;;;2.60;99.90;;;;;;4955658;29;20169;-68
2024/02/03 06:01:19;;;;;;;0.30;0.30;;;2.50;99.90;;;;;;4955607;29;20177;-68
2024/02/03 06:03:46;;;;;;;0.40;0.40;;;2.50;99.90;;;;;;4955295;28;20196;-67
2024/02/03 06:06:11;;;;;;;0.40;0.40;;;2.50;99.90;;;;;;4954721;28;20348;-68
2024/02/03 06:08:39;;;;;;;0.40;0.40;;;2.50;99.90;;;;;;4955667;29;20237;-67
2024/02/03 06:11:05;;;;;;;0.40;0.40;;;2.50;99.90;;;;;;4955278;28;20255;-67
2024/02/03 06:13:30;;;;;;;0.30;0.30;;;2.50;99.90;;;;;;4955311;29;20256;-67
2024/02/03 06:15:56;;;;;;;0.40;0.40;;;2.60;99.90;;;;;;4953571;29;20229;-67
2024/02/03 06:18:21;;;;;;;0.30;0.30;;;2.80;99.90;;;;;;4954992;29;20745;-66
2024/02/03 06:20:47;;;;;;;0.37;0.37;;;2.90;99.90;;;;;;4955183;29;20175;-67
2024/02/03 06:23:13;;;;;;;0.33;0.33;;;3.00;99.90;;;;;;4954813;28;20272;-66
2024/02/03 06:25:38;;;;;;;0.33;0.33;;;3.10;99.90;;;;;;4954998;29;20675;-66
2024/02/03 06:28:04;;;;;;;0.40;0.40;;;3.30;99.90;;;;;;4954680;29;20252;-68
2024/02/03 06:30:30;;;;;;;0.40;0.40;;;3.40;99.90;;;;;;4955018;28;20175;-68
2024/02/03 06:32:56;;;;;;;0.40;0.40;;;3.60;99.90;;;;;;4954807;29;20414;-67
2024/02/03 06:35:22;;;;;;;0.30;0.30;;;3.80;99.90;;;;;;4954518;28;20193;-66
2024/02/03 06:37:47;;;;;;;0.40;0.40;;;4.00;99.90;;;;;;4955038;29;20184;-67
2024/02/03 06:40:13;;;;;;;0.40;0.40;;;4.20;99.90;;;;;;4954955;29;20513;-68
2024/02/03 06:42:38;;;;;;;0.30;0.30;;;4.40;99.90;;;;;;4954532;29;20211;-67
2024/02/03 06:45:06;;;;;;;0.40;0.40;;;4.70;99.90;;;;;;4953131;29;20179;-69
2024/02/03 06:47:31;;;;;;;0.40;0.40;;;4.90;99.90;;;;;;4955030;28;20316;-67
2024/02/03 06:49:57;;;;;;;0.30;0.30;;;5.10;99.90;;;;;;4954110;29;20259;-68
2024/02/03 06:52:23;;;;;;;0.40;0.40;;;5.30;99.90;;;;;;4953478;29;20248;-65
2024/02/03 06:54:48;;;;;;;0.37;0.37;;;5.50;99.90;;;;;;4953019;29;20180;-68
2024/02/03 06:57:14;;;;;;;0.60;0.60;;;5.70;99.90;;;;;;4954433;29;20198;-67
2024/02/03 06:59:39;;;;;;;0.30;0.30;;;5.80;99.90;;;;;;4954532;29;20176;-66
2024/02/03 07:02:05;;;;;;;0.40;0.40;;;5.90;99.90;;;;;;4954156;29;20334;-67
2024/02/03 07:04:31;;;;;;;0.40;0.40;;;6.10;99.90;;;;;;4954740;28;20202;-67
2024/02/03 07:06:56;;;;;;;0.30;0.30;;;6.20;99.90;;;;;;4957893;29;20696;-67
2024/02/03 07:09:22;;;;;;;0.30;0.30;;;6.30;99.90;;;;;;4958247;29;20252;-67
2024/02/03 07:11:47;;;;;;;0.40;0.40;;;6.40;99.90;;;;;;4958504;29;20224;-67
2024/02/03 07:14:13;;;;;;;0.30;0.30;;;6.40;99.90;;;;;;4958084;29;20272;-67
2024/02/03 07:16:39;;;;;;;0.30;0.30;;;6.50;99.90;;;;;;4957848;28;20193;-67
2024/02/03 07:19:04;;;;;;;0.30;0.30;;;6.50;99.90;;;;;;4958285;29;20665;-67
2024/02/03 07:21:30;;;;;;;0.30;0.30;;;6.60;99.90;;;;;;4958115;29;20530;-66
2024/02/03 07:23:56;;;;;;;0.30;0.30;;;6.70;99.90;;;;;;4958737;28;20231;-66
2024/02/03 07:26:22;;;;;;;0.30;0.30;;;6.80;99.90;;;;;;4972039;28;20873;-66
2024/02/03 07:28:47;;;;;;;0.30;0.30;;;7.00;99.90;;;;;;4977541;28;20487;-67
2024/02/03 07:31:13;;;;;;;0.30;0.30;;;7.20;99.90;;;;;;4977116;28;20171;-67
2024/02/03 07:33:38;;;;;;;0.30;0.30;;;7.30;99.90;;;;;;4977220;28;20172;-66
2024/02/03 07:36:04;;;;;;;0.30;0.30;;;7.50;99.90;;;;;;4976797;28;20631;-67
2024/02/03 07:38:30;;;;;;;0.30;0.30;;;7.50;99.90;;;;;;4977314;28;20176;-64
2024/02/03 07:40:55;;;;;;;0.30;0.30;;;7.60;99.90;;;;;;4977091;28;20187;-65
2024/02/03 07:43:21;;;;;;;0.30;0.30;;;7.70;99.90;;;;;;4965598;28;20342;-66
2024/02/03 07:45:47;;;;;;;0.30;0.30;;;7.80;99.90;;;;;;4957245;29;20203;-67
2024/02/03 07:48:12;;;;;;;0.30;0.30;;;8.00;99.90;;;;;;4957985;29;20634;-66
2024/02/03 07:50:38;;;;;;;0.30;0.30;;;8.20;99.90;;;;;;4957608;29;20247;-65
2024/02/03 07:53:04;;;;;;;0.30;0.30;;;8.50;99.90;;;;;;4957430;29;20235;-69
2024/02/03 07:55:29;;;;;;;0.30;0.30;;;9.00;99.90;;;;;;4957128;29;20197;-70
2024/02/03 07:57:55;;;;;;;0.30;0.20;;;9.60;99.90;;;;;;4956891;28;20176;-69
2024/02/03 08:00:21;;;;;;;0.30;0.30;;;10.10;99.90;;;;;;4957287;29;20186;-68
2024/02/03 08:02:46;;;;;;;0.30;0.30;;;10.80;99.90;;;;;;4957150;29;20180;-69
2024/02/03 08:05:12;;;;;;;0.30;0.30;;;11.50;99.90;;;;;;4956721;28;20674;-68
2024/02/03 08:07:37;;;;;;;0.33;0.33;;;12.20;99.90;;;;;;4956840;29;20513;-69
2024/02/03 08:10:03;;;;;;;0.30;0.30;;;12.70;99.90;;;;;;4957572;28;20208;-68
2024/02/03 08:12:29;;;;;;;0.40;0.40;;;13.00;99.90;;;;;;4957122;28;20619;-70
2024/02/03 08:14:54;;;;;;;0.30;0.30;;;13.20;99.90;;;;;;4956835;29;20535;-68
2024/02/03 08:17:20;;;;;;;0.30;0.20;;;13.20;99.90;;;;;;4956663;28;20206;-68
2024/02/03 08:19:46;;;;;;;0.30;0.20;;;12.80;99.90;;;;;;4936735;29;20651;-68
2024/02/03 08:22:11;;;;;;;0.30;0.30;;;12.20;99.90;;;;;;4937993;29;20354;-67
2024/02/03 08:24:37;;;;;;;0.30;0.30;;;11.60;99.90;;;;;;4937471;29;20212;-68
2024/02/03 08:27:02;;;;;;;0.30;0.30;;;11.20;99.90;;;;;;4937793;29;20190;-67
2024/02/03 08:29:28;;;;;;;0.30;0.30;;;10.60;99.90;;;;;;4937924;29;20228;-67
2024/02/03 08:31:54;;;;;;;0.30;0.30;;;10.30;99.90;;;;;;4937648;29;20657;-68
2024/02/03 08:34:20;;;;;;;0.30;0.30;;;10.10;99.90;;;;;;4944928;28;20514;-72
2024/02/03 08:36:45;;;;;;;0.30;0.30;;;9.80;99.90;;;;;;4974821;28;20454;-69
2024/02/03 08:39:11;;;;;;;0.30;0.30;;;9.50;99.90;;;;;;4975831;28;20179;-68
2024/02/03 08:41:36;;;;;;;0.30;0.23;;;9.40;99.90;;;;;;4963474;28;20169;-67
2024/02/03 08:44:02;;;;;;;0.40;0.40;;;9.20;99.90;;;;;;4956153;29;20264;-69
2024/02/03 08:46:28;;;;;;;0.30;0.30;;;9.00;99.90;;;;;;4955569;29;20665;-69
2024/02/03 08:48:53;;;;;;;0.30;0.30;;;8.90;99.90;;;;;;4954160;28;20953;-69
2024/02/03 08:51:19;;;;;;;0.30;0.30;;;8.80;99.90;;;;;;4954541;29;20258;-67
2024/02/03 08:53:45;;;;;;;0.30;0.30;;;8.70;99.90;;;;;;4955227;28;20561;-69
2024/02/03 08:56:11;;;;;;;0.40;0.40;;;8.60;99.90;;;;;;4954843;29;20253;-70
2024/02/03 08:58:36;;;;;;;0.30;0.30;;;8.50;99.90;;;;;;4954976;28;20643;-70
2024/02/03 09:01:02;;;;;;;0.40;0.40;;;8.40;99.90;;;;;;4955903;29;20404;-69
2024/02/03 09:03:28;;;;;;;0.30;0.30;;;8.30;99.90;;;;;;4955586;28;20197;-69
2024/02/03 09:05:53;;;;;;;0.30;0.30;;;8.30;99.90;;;;;;4955768;29;20206;-70
2024/02/03 09:08:19;;;;;;;0.30;0.30;;;8.20;99.90;;;;;;4954992;29;20207;-70
2024/02/03 09:10:45;;;;;;;0.30;0.30;;;8.20;99.90;;;;;;4956212;29;20177;-70
2024/02/03 09:13:11;;;;;;;0.40;0.40;;;8.20;99.90;;;;;;4955123;29;20180;-70
2024/02/03 09:15:38;;;;;;;0.40;0.40;;;8.10;99.90;;;;;;4955862;29;20205;-70
2024/02/03 09:18:04;;;;;;;0.40;0.40;;;8.10;99.90;;;;;;4956249;28;20471;-71
2024/02/03 09:20:29;;;;;;;0.30;0.30;;;8.00;99.90;;;;;;4974874;28;20177;-70
2024/02/03 09:22:55;;;;;;;0.30;0.30;;;8.00;99.90;;;;;;4975226;28;20192;-69
2024/02/03 09:25:20;;;;;;;0.30;0.30;;;8.00;99.90;;;;;;4973407;28;20200;-69
2024/02/03 09:27:46;;;;;;;0.30;0.30;;;8.00;99.90;;;;;;4974463;28;20180;-69
2024/02/03 09:30:12;;;;;;;0.50;0.50;;;8.00;99.90;;;;;;4974010;28;20657;-70
2024/02/03 09:32:38;;;;;;;0.30;0.30;;;8.00;99.90;;;;;;4973904;28;20169;-69
2024/02/03 09:35:04;;;;;;;0.30;0.30;;;8.00;99.90;;;;;;4955468;28;20274;-69
2024/02/03 09:37:30;;;;;;;0.30;0.30;;;8.00;99.90;;;;;;4955834;28;20703;-69
2024/02/03 09:39:56;;;;;;;0.30;0.30;;;8.00;99.90;;;;;;4955879;28;20197;-69
2024/02/03 09:42:25;;;;;;;0.30;0.30;;;8.00;99.90;;;;;;4955587;28;20173;-69
2024/02/03 09:44:50;;;;;;;0.30;0.30;;;8.00;99.90;;;;;;4955146;28;20200;-69
2024/02/03 09:47:17;;;;;;;0.30;0.30;;;8.00;99.90;;;;;;4964520;28;20299;-69
2024/02/03 09:49:44;;;;;;;0.30;0.30;;;8.00;99.90;;;;;;4974779;28;20214;-69
2024/02/03 09:52:14;;;;;;;0.30;0.30;;;8.00;99.90;;;;;;4974850;28;20645;-69
2024/02/03 09:54:46;;;;;;;0.30;0.30;;;8.10;99.90;;;;;;4973080;28;20183;-69
2024/02/03 09:57:13;;;;;;;0.30;0.30;;;8.10;99.90;;;;;;4974886;28;20559;-69
2024/02/03 09:59:39;;;;;;;0.30;0.30;;;8.20;99.90;;;;;;4974793;28;20203;-69
2024/02/03 10:02:04;;;;;;;0.40;0.40;;;8.20;99.90;;;;;;4964508;28;20181;-69
2024/02/03 10:04:40;;;;;;;0.30;0.30;;;8.20;99.90;;;;;;4955020;29;20201;-70
2024/02/03 10:07:06;;;;;;;0.30;0.30;;;8.30;99.90;;;;;;4955473;28;20204;-70
2024/02/03 10:09:32;;;;;;;0.30;0.30;;;8.40;99.90;;;;;;4955214;29;20168;-69
2024/02/03 10:11:58;;;;;;;0.30;0.30;;;8.40;99.90;;;;;;4953953;29;20178;-69
2024/02/03 10:14:24;;;;;;;0.30;0.30;;;8.40;99.90;;;;;;4955121;29;20236;-70
2024/02/03 10:16:52;;;;;;;0.30;0.20;;;8.50;99.90;;;;;;4957367;28;20251;-69
2024/02/03 10:19:20;;;;;;;0.30;0.30;;;8.60;99.90;;;;;;4955321;28;20188;-70
2024/02/03 10:21:46;;;;;;;0.30;0.30;;;8.60;99.90;;;;;;4955357;28;20227;-69
2024/02/03 10:24:13;;;;;;;0.47;0.47;;;8.70;99.90;;;;;;4954746;28;20211;-68
2024/02/03 10:26:39;;;;;;;0.30;0.30;;;8.70;99.90;;;;;;4953508;29;20208;-70
2024/02/03 10:29:05;;;;;;;0.30;0.30;;;8.80;99.90;;;;;;4954910;29;20169;-70
2024/02/03 10:31:30;;;;;;;0.30;0.30;;;8.90;99.90;;;;;;4954927;28;20188;-70
2024/02/03 10:33:57;;;;;;;0.47;0.47;;;8.90;99.90;;;;;;4959306;28;20179;-70
2024/02/03 10:36:22;;;;;;;0.47;0.47;;;9.00;99.90;;;;;;4973814;28;20192;-68
2024/02/03 10:38:48;;;;;;;0.30;0.30;;;9.10;99.90;;;;;;4974914;28;20176;-70
2024/02/03 10:41:15;;;;;;;0.40;0.40;;;9.20;99.90;;;;;;4977023;28;20219;-69
2024/02/03 10:43:41;;;;;;;0.30;0.30;;;9.30;99.90;;;;;;4958711;28;20217;-68
2024/02/03 10:46:08;;;;;;;0.30;0.30;;;9.40;99.90;;;;;;4958300;29;20193;-69
2024/02/03 10:48:35;;;;;;;0.30;0.30;;;9.40;99.90;;;;;;4957993;29;20184;-70
2024/02/03 10:51:23;;;;;;;0.30;0.30;;;9.50;99.90;;;;;;4958869;28;20408;-69
2024/02/03 10:54:01;;;;;;;0.40;0.40;;;9.70;99.90;;;;;;4958464;28;20199;-70
2024/02/03 10:56:30;;;;;;;0.30;0.20;;;9.70;99.90;;;;;;4966933;28;20201;-70
2024/02/03 10:58:55;;;;;;;0.30;0.20;;;9.80;99.90;;;;;;4978013;28;20431;-69
2024/02/03 11:01:21;;;;;;;0.30;0.30;;;10.00;99.90;;;;;;4977839;28;20470;-69
2024/02/03 11:03:51;;;;;;;0.30;0.30;;;10.20;99.90;;;;;;4977548;28;20196;-68
2024/02/03 11:06:31;;;;;;;0.30;0.30;;;10.40;99.90;;;;;;4977296;28;20209;-69
2024/02/03 11:09:20;;;;;;;0.30;0.30;;;10.50;99.90;;;;;;4958163;28;20414;-69
2024/02/03 11:11:50;;;;;;;0.30;0.30;;;10.70;99.90;;;;;;4958371;28;20400;-69
2024/02/03 11:14:24;;;;;;;0.30;0.30;;;10.80;99.90;;;;;;4957928;28;20423;-70
2024/02/03 11:17:06;;;;;;;0.30;0.30;;;11.10;99.90;;;;;;4958580;28;20518;-70
2024/02/03 11:19:33;;;;;;;0.30;0.20;;;11.50;99.90;;;;;;4958467;28;20400;-70
2024/02/03 11:22:02;;;;;;;0.40;0.40;;;12.10;99.90;;;;;;4963100;28;20420;-71
2024/02/03 11:24:28;;;;;;;0.30;0.27;;;12.80;99.90;;;;;;4976616;28;20794;-69
2024/02/03 11:26:58;;;;;;;0.30;0.30;;;13.60;99.90;;;;;;4977348;28;20883;-69
2024/02/03 11:29:24;;;;;;;0.30;0.20;;;13.90;99.90;;;;;;4975419;28;20900;-70
2024/02/03 11:32:04;;;;;;;0.37;0.37;;;13.90;99.90;;;;;;4977144;28;20420;-76
2024/02/03 11:34:32;;;;;;;0.30;0.30;;;13.80;99.90;;;;;;4969964;28;20547;-70
2024/02/03 11:37:01;;;;;;;0.40;0.40;;;13.60;99.90;;;;;;4957674;28;20442;-69
2024/02/03 11:39:33;;;;;;;0.30;0.30;;;13.50;99.90;;;;;;4958039;28;20415;-69
2024/02/03 11:42:00;;;;;;;0.30;0.20;;;13.30;99.90;;;;;;4957925;28;20428;-70
2024/02/03 11:44:42;;;;;;;0.30;0.20;;;13.00;99.90;;;;;;4957463;28;20788;-70
2024/02/03 11:47:08;;;;;;;0.30;0.20;;;12.90;99.90;;;;;;4957891;28;20418;-70
2024/02/03 11:49:34;;;;;;;1.57;0.60;;;12.70;99.90;;;;;;4957332;28;20422;-70
2024/02/03 11:52:01;;;;;;;0.30;0.20;;;12.40;99.90;;;;;;4956088;28;20176;-70
2024/02/03 11:54:27;;;;;;;0.30;0.27;;;12.20;99.90;;;;;;4957237;28;20423;-70
2024/02/03 11:56:54;;;;;;;0.30;0.30;;;11.90;99.90;;;;;;4957569;28;20424;-71
2024/02/03 11:59:30;;;;;;;0.30;0.20;;;11.80;99.90;;;;;;4957444;28;20440;-70
2024/02/03 12:01:56;;;;;;;0.30;0.30;;;11.70;99.90;;;;;;4957687;28;20383;-68
2024/02/03 12:04:26;;;;;;;0.30;0.30;;;11.70;99.90;;;;;;4966214;28;20455;-69
2024/02/03 12:06:54;;;;;;;0.30;0.30;;;11.70;99.90;;;;;;4976959;28;20501;-70
2024/02/03 12:09:20;;;;;;;0.30;0.30;;;11.70;99.90;;;;;;4976750;28;20948;-69
2024/02/03 12:11:50;;;;;;;0.30;0.20;;;11.70;99.90;;;;;;4975184;28;20423;-69
2024/02/03 12:14:18;;;;;;;0.30;0.20;;;11.70;99.90;;;;;;4976840;28;20252;-71
2024/02/03 12:16:45;;;;;;;0.30;0.30;;;11.70;99.90;;;;;;4976964;28;20522;-69
2024/02/03 12:19:11;;;;;;;0.30;0.30;;;11.70;99.90;;;;;;4966966;28;20558;-70
2024/02/03 12:21:38;;;;;;;0.30;0.30;;;11.80;99.90;;;;;;4957439;29;20590;-69
2024/02/03 12:24:07;;;;;;;0.30;0.30;;;11.80;99.90;;;;;;4957209;28;20682;-68
2024/02/03 12:26:33;;;;;;;0.30;0.30;;;11.90;99.90;;;;;;4956511;28;20427;-68
2024/02/03 12:29:00;;;;;;;0.30;0.23;;;11.90;99.90;;;;;;4955895;29;20477;-70
2024/02/03 12:31:26;;;;;;;0.30;0.30;;;11.90;99.90;;;;;;4955927;29;20498;-70
2024/02/03 12:33:51;;;;;;;0.30;0.30;;;11.80;99.90;;;;;;4966074;28;20534;-70
2024/02/03 12:36:17;;;;;;;0.30;0.30;;;11.80;99.90;;;;;;4975830;28;20195;-69
2024/02/03 12:38:43;;;;;;;0.30;0.30;;;11.80;99.90;;;;;;4977605;28;20657;-68
2024/02/03 12:41:09;;;;;;;0.30;0.30;;;11.80;99.90;;;;;;4977768;28;20587;-70
2024/02/03 12:43:38;;;;;;;0.30;0.30;;;11.80;99.90;;;;;;4976261;28;20198;-70
2024/02/03 12:46:05;;;;;;;0.30;0.20;;;11.80;99.90;;;;;;4975362;28;20427;-68
2024/02/03 12:48:30;;;;;;;0.30;0.20;;;11.80;99.90;;;;;;4956666;28;20765;-69
2024/02/03 12:50:58;;;;;;;0.30;0.27;;;11.60;99.90;;;;;;4956622;29;20497;-69
2024/02/03 12:53:24;;;;;;;0.30;0.30;;;11.60;99.90;;;;;;4956699;28;20558;-69
2024/02/03 12:55:50;;;;;;;0.30;0.27;;;11.50;99.90;;;;;;4956533;28;20439;-69
2024/02/03 12:58:16;;;;;;;0.30;0.30;;;11.50;99.90;;;;;;4961346;29;20515;-68
2024/02/03 13:00:43;;;;;;;0.30;0.30;;;11.50;99.90;;;;;;4960774;28;20176;-69
2024/02/03 13:03:13;;;;;;;0.30;0.30;;;11.40;99.90;;;;;;4978832;28;20481;-69
2024/02/03 13:05:45;;;;;;;0.30;0.30;;;11.40;99.90;;;;;;4979474;28;20819;-69
2024/02/03 13:08:11;;;;;;;0.30;0.30;;;11.40;99.90;;;;;;4979886;28;20934;-69
2024/02/03 13:10:38;;;;;;;0.30;0.30;;;11.40;99.90;;;;;;4979842;28;20390;-68
2024/02/03 13:13:03;;;;;;;0.30;0.30;;;11.40;99.90;;;;;;4983319;28;20533;-68
2024/02/03 13:15:29;;;;;;;0.30;0.30;;;11.40;99.90;;;;;;4981358;28;20430;-69
2024/02/03 13:17:55;;;;;;;0.30;0.30;;;11.40;99.90;;;;;;4958102;28;20200;-71
2024/02/03 13:20:22;;;;;;;0.33;0.33;;;11.40;99.90;;;;;;4957045;29;20215;-71
2024/02/03 13:22:48;;;;;;;0.30;0.30;;;11.40;99.90;;;;;;4957851;28;20654;-69
2024/02/03 13:25:13;;;;;;;0.40;0.40;;;11.30;99.90;;;;;;4958068;28;20404;-70
2024/02/03 13:27:39;;;;;;;0.30;0.30;;;11.30;99.90;;;;;;4956833;29;20880;-69
2024/02/03 13:30:06;;;;;;;0.30;0.30;;;11.20;99.90;;;;;;4957819;29;20176;-70
2024/02/03 13:32:32;;;;;;;0.30;0.30;;;11.20;99.90;;;;;;4975998;28;20252;-69
2024/02/03 13:34:57;;;;;;;0.30;0.30;;;11.20;99.90;;;;;;4978999;28;20421;-69
2024/02/03 13:37:23;;;;;;;0.30;0.30;;;11.20;99.90;;;;;;4977711;28;20203;-69
2024/02/03 13:39:49;;;;;;;0.30;0.30;;;11.20;99.90;;;;;;4965421;28;20427;-69
2024/02/03 13:42:16;;;;;;;0.33;0.33;;;11.10;99.90;;;;;;4960147;28;20185;-68
2024/02/03 13:44:41;;;;;;;0.30;0.30;;;11.10;99.90;;;;;;4973669;28;20471;-67
2024/02/03 13:47:07;;;;;;;0.30;0.30;;;11.10;99.90;;;;;;4975512;28;20427;-70
2024/02/03 13:49:34;;;;;;;0.30;0.30;;;11.10;99.90;;;;;;4975463;28;20171;-69
2024/02/03 13:52:00;;;;;;;0.40;0.40;;;11.10;99.90;;;;;;4975625;28;20168;-68
2024/02/03 13:54:26;;;;;;;0.30;0.30;;;11.10;99.90;;;;;;4965322;28;20438;-69
2024/02/03 13:56:52;;;;;;;0.30;0.30;;;11.20;99.90;;;;;;4956361;29;20470;-69
2024/02/03 13:59:18;;;;;;;0.30;0.30;;;11.20;99.90;;;;;;4956909;28;20180;-69
2024/02/03 14:01:43;;;;;;;0.30;0.30;;;11.10;99.90;;;;;;4956843;28;20489;-70
2024/02/03 14:04:09;;;;;;;0.30;0.30;;;11.10;99.90;;;;;;4956007;29;20200;-71
2024/02/03 14:06:35;;;;;;;0.30;0.20;;;11.10;99.90;;;;;;4956105;29;20246;-69
2024/02/03 14:09:01;;;;;;;0.30;0.30;;;11.10;99.90;;;;;;4954221;28;20434;-70
2024/02/03 14:11:28;;;;;;;0.30;0.30;;;11.00;99.90;;;;;;4955870;28;20178;-70
2024/02/03 14:13:53;;;;;;;0.30;0.30;;;11.10;99.90;;;;;;4955030;28;20250;-68
2024/02/03 14:16:19;;;;;;;0.30;0.30;;;11.20;99.90;;;;;;4955027;28;20492;-70
2024/02/03 14:18:44;;;;;;;0.30;0.30;;;11.20;99.90;;;;;;4955720;28;20176;-70
2024/02/03 14:21:10;;;;;;;0.30;0.30;;;11.30;99.90;;;;;;4955495;28;20270;-69
2024/02/03 14:23:36;;;;;;;0.30;0.20;;;11.30;99.90;;;;;;4954353;28;20570;-69
2024/02/03 14:26:06;;;;;;;0.30;0.30;;;11.30;99.90;;;;;;4955276;29;20193;-69
2024/02/03 14:28:32;;;;;;;0.30;0.30;;;11.40;99.90;;;;;;4955755;28;20195;-68
2024/02/03 14:30:58;;;;;;;0.30;0.30;;;11.40;99.90;;;;;;4955312;28;20400;-68
2024/02/03 14:33:25;;;;;;;0.30;0.30;;;11.40;99.90;;;;;;4953830;29;20435;-69
2024/02/03 14:35:52;;;;;;;0.33;0.33;;;11.40;99.90;;;;;;4953262;29;20227;-69
2024/02/03 14:38:22;;;;;;;0.30;0.30;;;11.40;99.90;;;;;;4954774;28;20424;-69
2024/02/03 14:40:49;;;;;;;0.30;0.20;;;11.40;99.90;;;;;;4972308;28;20414;-68
2024/02/03 14:43:15;;;;;;;0.30;0.20;;;11.40;99.90;;;;;;4974134;28;20432;-70
2024/02/03 14:45:41;;;;;;;0.30;0.27;;;11.40;99.90;;;;;;4973899;28;20453;-70
2024/02/03 14:48:07;;;;;;;0.30;0.30;;;11.50;99.90;;;;;;4974344;28;20891;-70
2024/02/03 14:50:32;;;;;;;0.53;0.53;;;11.50;99.90;;;;;;4974046;28;20405;-69
2024/02/03 14:52:58;;;;;;;0.30;0.30;;;11.40;99.90;;;;;;4961167;28;20641;-69
2024/02/03 14:55:24;;;;;;;0.30;0.30;;;11.40;99.90;;;;;;4954632;28;20187;-69
2024/02/03 14:57:51;;;;;;;0.30;0.30;;;11.40;99.90;;;;;;4955074;29;20439;-70
2024/02/03 15:00:17;;;;;;;0.30;0.20;;;11.40;99.90;;;;;;4954927;28;20200;-70
2024/02/03 15:02:42;;;;;;;0.30;0.30;;;11.30;99.90;;;;;;4955000;29;20914;-68
2024/02/03 15:05:08;;;;;;;0.33;0.33;;;11.30;99.90;;;;;;4954050;29;20470;-69
2024/02/03 15:07:34;;;;;;;0.30;0.30;;;11.30;99.90;;;;;;4954322;28;20223;-69
2024/02/03 15:10:01;;;;;;;0.30;0.30;;;11.20;99.90;;;;;;4954589;28;20188;-69
2024/02/03 15:12:30;;;;;;;0.30;0.30;;;11.20;99.90;;;;;;4953316;29;20467;-69
2024/02/03 15:14:57;;;;;;;0.30;0.30;;;11.10;99.90;;;;;;4954426;28;20804;-69
2024/02/03 15:17:23;;;;;;;0.30;0.20;;;11.10;99.90;;;;;;4954728;28;20769;-69
2024/02/03 15:19:49;;;;;;;0.30;0.30;;;11.00;99.90;;;;;;4954559;28;20423;-69
2024/02/03 15:22:14;;;;;;;0.30;0.30;;;11.00;99.90;;;;;;4954756;28;20182;-70
2024/02/03 15:24:40;;;;;;;0.30;0.20;;;10.90;99.90;;;;;;4954092;29;20805;-69
2024/02/03 15:27:06;;;;;;;0.30;0.27;;;10.90;99.90;;;;;;4956982;28;20243;-68
2024/02/03 15:29:31;;;;;;;0.30;0.30;;;10.90;99.90;;;;;;4958084;29;20219;-67
2024/02/03 15:31:58;;;;;;;0.30;0.20;;;10.80;99.90;;;;;;4958123;28;20172;-70
2024/02/03 15:34:23;;;;;;;0.40;0.40;;;10.80;99.90;;;;;;4957408;28;20263;-69
2024/02/03 15:36:49;;;;;;;0.30;0.30;;;10.70;99.90;;;;;;4958069;29;20525;-69
2024/02/03 15:39:15;;;;;;;0.30;0.20;;;10.70;99.90;;;;;;4957899;28;20179;-70
2024/02/03 15:41:41;;;;;;;0.30;0.30;;;10.70;99.90;;;;;;4957898;29;20422;-69
2024/02/03 15:44:06;;;;;;;0.40;0.40;;;10.60;99.90;;;;;;4957787;29;20208;-69
2024/02/03 15:46:32;;;;;;;0.30;0.30;;;10.50;99.90;;;;;;4957467;29;20565;-69
2024/02/03 15:48:58;;;;;;;0.30;0.30;;;10.40;99.90;;;;;;4957875;29;20175;-69
2024/02/03 15:51:23;;;;;;;0.33;0.33;;;10.40;99.90;;;;;;4957794;29;20175;-70
2024/02/03 15:53:49;;;;;;;0.30;0.20;;;10.30;99.90;;;;;;4960399;28;20178;-69
2024/02/03 15:56:15;;;;;;;0.47;0.47;;;10.30;99.90;;;;;;4976587;28;20729;-69
2024/02/03 15:58:40;;;;;;;0.33;0.33;;;10.20;99.90;;;;;;4976863;28;20435;-69
2024/02/03 16:01:06;;;;;;;0.30;0.20;;;10.10;99.90;;;;;;4976988;28;20454;-69
2024/02/03 16:03:32;;;;;;;0.30;0.30;;;10.10;99.90;;;;;;4976929;28;20202;-69
2024/02/03 16:05:58;;;;;;;0.30;0.30;;;9.90;99.90;;;;;;4974838;28;20202;-69
2024/02/03 16:08:23;;;;;;;0.30;0.30;;;9.80;99.90;;;;;;4974874;28;20180;-70
2024/02/03 16:10:49;;;;;;;0.30;0.30;;;9.70;99.90;;;;;;4957396;29;20412;-68
2024/02/03 16:13:15;;;;;;;0.40;0.40;;;9.70;99.90;;;;;;4957367;29;20229;-68
2024/02/03 16:15:42;;;;;;;0.30;0.30;;;9.70;99.90;;;;;;4956871;28;20451;-69
2024/02/03 16:18:10;;;;;;;0.30;0.30;;;9.60;99.90;;;;;;4957274;28;20173;-67
2024/02/03 16:20:37;;;;;;;0.30;0.30;;;9.60;99.90;;;;;;4957327;28;20197;-67
2024/02/03 16:23:03;;;;;;;0.40;0.40;;;9.60;99.90;;;;;;4963141;28;20264;-68
2024/02/03 16:25:28;;;;;;;0.30;0.30;;;9.60;99.90;;;;;;4976247;28;20272;-68
2024/02/03 16:27:54;;;;;;;0.30;0.30;;;9.50;99.90;;;;;;4977406;28;20400;-68
2024/02/03 16:30:20;;;;;;;0.40;0.40;;;9.50;99.90;;;;;;4976803;28;20221;-69
2024/02/03 16:32:45;;;;;;;0.30;0.30;;;9.60;99.90;;;;;;4977206;28;20170;-67
2024/02/03 16:35:11;;;;;;;0.30;0.30;;;9.60;99.90;;;;;;4976263;28;20188;-68
2024/02/03 16:37:37;;;;;;;0.30;0.30;;;9.60;99.90;;;;;;4969441;28;20587;-69
2024/02/03 16:40:03;;;;;;;0.30;0.30;;;9.60;99.90;;;;;;4966629;28;20453;-68
2024/02/03 16:42:29;;;;;;;0.50;0.50;;;9.60;99.90;;;;;;4975942;28;20182;-69
2024/02/03 16:44:54;;;;;;;0.33;0.33;;;9.60;99.90;;;;;;4975540;28;20216;-68
2024/02/03 16:47:20;;;;;;;0.30;0.30;;;9.70;99.90;;;;;;4976217;28;20201;-68
2024/02/03 16:49:46;;;;;;;0.30;0.30;;;9.70;99.90;;;;;;4975945;28;20172;-69
2024/02/03 16:52:11;;;;;;;0.40;0.40;;;9.70;99.90;;;;;;4971649;28;20183;-71
2024/02/03 16:54:37;;;;;;;0.30;0.30;;;9.70;99.90;;;;;;4956035;28;20595;-68
2024/02/03 16:57:03;;;;;;;0.40;0.40;;;9.70;99.90;;;;;;4955688;29;20193;-69
2024/02/03 16:59:29;;;;;;;0.40;0.40;;;9.70;99.90;;;;;;4956654;28;20648;-69
2024/02/03 17:01:55;;;;;;;0.30;0.30;;;9.70;99.90;;;;;;4955361;29;20196;-69
2024/02/03 17:04:20;;;;;;;0.30;0.30;;;9.70;99.90;;;;;;4956532;29;20236;-69
2024/02/03 17:06:46;;;;;;;0.30;0.30;;;9.70;99.90;;;;;;4956167;28;20640;-68
2024/02/03 17:09:13;;;;;;;0.30;0.30;;;9.70;99.90;;;;;;4963116;28;20178;-67
2024/02/03 17:11:39;;;;;;;0.30;0.30;;;9.70;99.90;;;;;;4958436;28;20197;-68
2024/02/03 17:14:04;;;;;;;0.30;0.30;;;9.70;99.90;;;;;;4974445;28;20197;-69
2024/02/03 17:16:30;;;;;;;0.30;0.30;;;9.70;99.90;;;;;;4973630;28;20203;-70
2024/02/03 17:18:55;;;;;;;0.30;0.30;;;9.70;99.90;;;;;;4975300;28;20235;-68
2024/02/03 17:21:21;;;;;;;0.30;0.30;;;9.70;99.90;;;;;;4972060;28;20204;-68
2024/02/03 17:23:47;;;;;;;0.30;0.30;;;9.70;99.90;;;;;;4954407;29;20216;-68
2024/02/03 17:26:13;;;;;;;0.30;0.30;;;9.80;99.90;;;;;;4955415;28;20185;-68
2024/02/03 17:28:39;;;;;;;0.30;0.30;;;9.80;99.90;;;;;;4956171;29;20508;-67
2024/02/03 17:31:04;;;;;;;0.30;0.30;;;9.80;99.90;;;;;;4956023;28;20402;-67
2024/02/03 17:33:30;;;;;;;0.30;0.20;;;9.90;99.90;;;;;;4954491;29;20173;-66
2024/02/03 17:35:56;;;;;;;0.30;0.30;;;9.80;99.90;;;;;;4970204;28;20202;-67
2024/02/03 17:38:21;;;;;;;0.37;0.37;;;9.90;99.90;;;;;;4974612;28;20181;-67
2024/02/03 17:40:47;;;;;;;0.30;0.30;;;9.90;99.90;;;;;;4974962;28;20232;-67
2024/02/03 17:43:13;;;;;;;0.30;0.30;;;9.90;99.90;;;;;;4973685;28;20248;-66
2024/02/03 17:45:38;;;;;;;0.30;0.30;;;9.90;99.90;;;;;;4974369;28;20200;-67
2024/02/03 17:48:04;;;;;;;0.30;0.30;;;9.80;99.90;;;;;;4973487;28;20263;-66
2024/02/03 17:50:29;;;;;;;0.30;0.30;;;9.90;99.90;;;;;;4960872;28;20591;-67
2024/02/03 17:52:55;;;;;;;0.30;0.30;;;9.80;99.90;;;;;;4954396;29;20177;-68
2024/02/03 17:55:21;;;;;;;0.30;0.30;;;9.80;99.90;;;;;;4955063;29;20680;-68